Time;durP1;ratioP1;P1;durP2;ratioP2;P2;SDS_P1;SDS_P2;PMS_P1;PMS_P2;Temp;Humidity;BMP_temperature;BMP_pressure;BME280_temperature;BME280_humidity;BME280_pressure;Samples;Min_cycle;Max_cycle;Signal;HPM_P1;HPM_P2
2022/08/11 00:01:17;;;;;;;4.47;4.17;;;;;;;20.34;100.00;100081.75;1693566;82;21461;-57
2022/08/11 00:04:00;;;;;;;5.65;4.12;;;;;;;20.43;100.00;100078.37;1686498;82;22142;-57
2022/08/11 00:06:35;;;;;;;7.92;4.47;;;;;;;20.41;100.00;100074.97;1690578;82;21586;-57
2022/08/11 00:09:05;;;;;;;6.67;4.42;;;;;;;20.45;100.00;100072.42;1689813;82;21566;-57
2022/08/11 00:11:42;;;;;;;5.40;4.22;;;;;;;20.48;100.00;100077.54;1690381;82;21545;-57
2022/08/11 00:14:26;;;;;;;4.37;3.98;;;;;;;20.49;100.00;100077.05;1687520;83;21468;-58
2022/08/11 00:17:00;;;;;;;6.83;4.08;;;;;;;20.49;100.00;100081.05;1696525;82;22193;-57
2022/08/11 00:19:36;;;;;;;5.47;3.83;;;;;;;20.48;100.00;100074.87;1691799;82;21034;-57
2022/08/11 00:22:03;;;;;;;6.58;4.47;;;;;;;20.49;100.00;100073.88;1685277;82;21606;-57
2022/08/11 00:24:37;;;;;;;4.53;4.08;;;;;;;20.41;100.00;100075.81;1694867;83;21560;-57
2022/08/11 00:27:05;;;;;;;6.72;4.47;;;;;;;20.42;100.00;100076.69;1688649;82;21443;-57
2022/08/11 00:29:33;;;;;;;7.80;4.62;;;;;;;20.42;100.00;100072.68;1695421;82;21048;-57
2022/08/11 00:32:03;;;;;;;6.90;3.98;;;;;;;20.39;100.00;100074.23;1685235;82;21636;-57
2022/08/11 00:34:35;;;;;;;4.53;4.15;;;;;;;20.38;100.00;100069.39;1692382;82;21644;-57
2022/08/11 00:37:08;;;;;;;10.05;4.25;;;;;;;20.45;100.00;100067.08;1694633;82;21082;-57
2022/08/11 00:39:45;;;;;;;4.75;4.33;;;;;;;20.45;100.00;100069.75;1687130;83;21538;-57
2022/08/11 00:42:56;;;;;;;6.97;4.53;;;;;;;20.52;100.00;100067.47;1689913;82;21831;-57
2022/08/11 00:45:26;;;;;;;4.62;4.22;;;;;;;20.53;100.00;100070.49;1739866;80;21565;-56
2022/08/11 00:48:08;;;;;;;8.90;4.33;;;;;;;20.52;100.00;100065.64;1738096;80;21397;-57
2022/08/11 00:50:51;;;;;;;5.42;4.37;;;;;;;20.51;100.00;100061.28;1739320;80;21536;-57
2022/08/11 00:53:36;;;;;;;5.72;4.45;;;;;;;20.34;100.00;100067.06;1729456;80;21531;-57
2022/08/11 00:56:45;;;;;;;6.33;4.33;;;;;;;20.26;100.00;100065.47;1735438;80;21988;-56
2022/08/11 00:59:38;;;;;;;5.58;4.20;;;;;;;20.25;100.00;100059.30;1737182;80;21569;-57
2022/08/11 01:02:49;;;;;;;4.60;4.28;;;;;;;20.25;100.00;100063.76;1731701;80;21030;-57
2022/08/11 01:05:58;;;;;;;4.78;4.28;;;;;;;20.19;100.00;100056.61;1738189;79;21523;-57
2022/08/11 01:08:45;;;;;;;7.75;4.03;;;;;;;20.16;100.00;100050.16;1694084;80;21655;-57
2022/08/11 01:12:04;;;;;;;5.70;4.30;;;;;;;20.18;100.00;100046.88;1736685;80;21971;-57
2022/08/11 01:15:00;;;;;;;4.42;4.05;;;;;;;20.20;100.00;100044.10;1722772;80;21563;-57
2022/08/11 01:18:22;;;;;;;7.47;3.87;;;;;;;20.16;100.00;100042.64;1745128;80;21429;-56
2022/08/11 01:21:21;;;;;;;7.30;4.33;;;;;;;20.12;100.00;100044.69;1739324;81;21505;-57
2022/08/11 01:24:19;;;;;;;5.28;3.90;;;;;;;20.07;100.00;100050.02;1737049;80;21508;-57
2022/08/11 01:27:24;;;;;;;4.47;4.10;;;;;;;20.05;100.00;100050.13;1741171;80;22114;-57
2022/08/11 01:30:27;;;;;;;5.55;4.20;;;;;;;20.06;100.00;100049.63;1735763;80;21427;-57
2022/08/11 01:33:23;;;;;;;4.37;4.08;;;;;;;20.07;100.00;100048.19;1727024;80;21441;-57
2022/08/11 01:36:33;;;;;;;6.70;4.28;;;;;;;20.03;100.00;100048.05;1687543;83;21760;-57
2022/08/11 01:39:24;;;;;;;5.17;3.80;;;;;;;19.97;100.00;100051.20;1729859;80;21548;-57
2022/08/11 01:45:38;;;;;;;4.12;3.83;;;;;;;19.95;100.00;100039.80;1735345;80;21573;-57
2022/08/11 01:48:39;;;;;;;4.85;4.37;;;;;;;19.97;100.00;100040.03;1739000;80;21551;-57
2022/08/11 01:51:44;;;;;;;5.12;4.62;;;;;;;19.98;100.00;100032.87;1738457;80;21537;-56
2022/08/11 01:54:26;;;;;;;4.65;4.25;;;;;;;19.97;100.00;100034.70;1731408;80;21557;-57
2022/08/11 01:57:11;;;;;;;6.40;4.05;;;;;;;19.97;100.00;100029.84;1727271;80;21885;-57
2022/08/11 01:59:49;;;;;;;4.58;3.62;;;;;;;19.99;100.00;100034.59;1737715;80;20984;-57
2022/08/11 02:02:52;;;;;;;5.37;3.83;;;;;;;19.99;100.00;100033.25;1734961;80;20986;-57
2022/08/11 02:05:59;;;;;;;4.58;3.80;;;;;;;20.00;100.00;100027.80;1740889;80;21464;-57
2022/08/11 02:08:50;;;;;;;4.50;4.05;;;;;;;20.02;100.00;100035.20;1736032;80;21444;-58
2022/08/11 02:11:32;;;;;;;4.60;4.12;;;;;;;20.02;100.00;100031.20;1694716;83;21937;-57
2022/08/11 02:14:29;;;;;;;4.30;3.92;;;;;;;20.02;100.00;100023.20;1687684;82;21599;-57
2022/08/11 02:17:14;;;;;;;4.33;3.92;;;;;;;19.98;100.00;100027.53;1692319;83;21612;-56
2022/08/11 02:26:12;;;;;;;6.58;4.30;;;;;;;19.86;100.00;100030.66;1689246;82;21858;-57
2022/08/11 02:29:15;;;;;;;9.90;3.72;;;;;;;19.86;100.00;100021.31;1690586;82;21629;-57
2022/08/11 02:35:02;;;;;;;4.35;3.95;;;;;;;19.81;100.00;100010.97;1706100;82;21579;-56
2022/08/11 02:37:52;;;;;;;;;;;;;;;19.76;100.00;100006.95;1704601;82;21507;-56
2022/08/11 02:40:58;;;;;;;4.42;4.03;;;;;;;19.76;100.00;100006.95;1682579;83;21795;-56
2022/08/11 02:43:42;;;;;;;4.90;4.40;;;;;;;19.70;100.00;100008.23;1684845;82;21457;-56
2022/08/11 02:46:29;;;;;;;7.62;4.15;;;;;;;19.72;100.00;100018.36;1670510;84;21532;-57
2022/08/11 02:52:26;;;;;;;7.83;4.40;;;;;;;19.69;100.00;100035.05;1682383;83;21448;-57
2022/08/11 02:55:07;;;;;;;4.53;4.08;;;;;;;19.70;100.00;100031.40;1687031;83;21885;-56
2022/08/11 02:57:52;;;;;;;6.78;4.17;;;;;;;19.71;100.00;100026.44;1684208;83;21557;-57
2022/08/11 03:00:18;;;;;;;4.60;4.20;;;;;;;19.69;100.00;100017.22;1683004;83;21555;-57
2022/08/11 03:03:18;;;;;;;4.92;4.53;;;;;;;19.69;100.00;100009.22;1684952;83;21713;-56
2022/08/11 03:06:05;;;;;;;7.08;4.87;;;;;;;19.82;100.00;99999.35;1679007;83;21646;-56
2022/08/11 03:08:50;;;;;;;;;;;;;;;19.81;100.00;100001.64;1693023;83;21743;-56
2022/08/11 03:17:39;;;;;;;6.87;4.50;;;;;;;19.86;100.00;100023.14;1682628;83;21626;-58
2022/08/11 03:20:14;;;;;;;8.28;4.87;;;;;;;19.91;100.00;100018.28;1682110;83;21461;-57
2022/08/11 03:23:01;;;;;;;5.10;4.60;;;;;;;19.96;100.00;100012.97;1727970;81;21822;-57
2022/08/11 03:26:02;;;;;;;6.33;4.70;;;;;;;19.97;100.00;100010.68;1726275;80;21523;-57
2022/08/11 03:28:35;;;;;;;5.78;5.00;;;;;;;19.97;100.00;100013.84;1731578;80;21506;-57
2022/08/11 03:31:23;;;;;;;4.92;4.53;;;;;;;19.98;100.00;100018.19;1689719;82;21572;-57
2022/08/11 03:34:04;;;;;;;6.55;4.90;;;;;;;19.93;100.00;100022.56;1687955;84;21034;-58
2022/08/11 03:37:47;;;;;;;5.25;4.85;;;;;;;19.86;100.00;100017.31;1691209;82;22208;-57
2022/08/11 03:40:13;;;;;;;6.17;5.15;;;;;;;19.89;100.00;100029.09;1682520;83;21417;-57
2022/08/11 03:42:57;;;;;;;7.28;4.75;;;;;;;19.89;100.00;100032.23;1684354;82;26759;-57
2022/08/11 03:45:56;;;;;;;5.62;5.08;;;;;;;19.92;100.00;100026.67;1684300;84;21463;-57
2022/08/11 03:48:24;;;;;;;9.50;5.17;;;;;;;19.98;100.00;100032.38;1691247;82;22689;-57
2022/08/11 03:51:13;;;;;;;6.10;5.17;;;;;;;20.00;100.00;100023.80;1685082;83;21599;-57
2022/08/11 03:54:08;;;;;;;5.55;4.95;;;;;;;20.02;100.00;100026.33;1681655;82;21544;-57
2022/08/11 03:56:49;;;;;;;10.70;5.28;;;;;;;20.09;100.00;100018.72;1695891;82;21502;-57
2022/08/11 03:59:51;;;;;;;6.60;5.35;;;;;;;20.10;100.00;100013.27;1688803;82;21516;-57
2022/08/11 04:02:56;;;;;;;5.72;5.03;;;;;;;20.08;100.00;100013.87;1696983;83;21476;-57
2022/08/11 04:06:02;;;;;;;5.65;5.03;;;;;;;20.10;100.00;100031.08;1568468;87;21845;-57
2022/08/11 04:09:25;;;;;;;10.43;4.85;;;;;;;20.10;100.00;100034.62;1690901;82;21531;-57
2022/08/11 04:12:29;;;;;;;5.78;5.08;;;;;;;20.25;100.00;100030.39;1685410;83;21653;-58
2022/08/11 04:18:39;;;;;;;6.25;4.92;;;;;;;20.21;100.00;100009.28;1694875;82;21575;-57
2022/08/11 04:21:36;;;;;;;6.75;4.80;;;;;;;20.20;100.00;100008.91;1685274;83;21804;-59
2022/08/11 04:24:17;;;;;;;5.05;4.65;;;;;;;20.33;100.00;99998.12;1683297;83;21479;-59
2022/08/11 04:27:18;;;;;;;5.72;4.55;;;;;;;20.43;100.00;99984.91;1668203;83;20991;-59
2022/08/11 04:30:18;;;;;;;5.25;4.75;;;;;;;20.38;100.00;99975.93;1685041;82;21647;-57
2022/08/11 04:33:24;;;;;;;4.97;4.55;;;;;;;20.45;100.00;99956.75;1691679;83;21453;-58
2022/08/11 04:37:30;;;;;;;7.78;4.47;;;;;;;20.56;100.00;99956.75;1726636;80;21938;-58
2022/08/11 04:39:31;;;;;;;5.55;4.75;;;;;;;20.64;100.00;99966.84;1726261;81;21588;-58
2022/08/11 04:45:27;;;;;;;4.87;4.45;;;;;;;20.60;100.00;99960.41;1717603;81;20422;-58
2022/08/11 05:07:44;;;;;;;5.17;4.78;;;;;;;20.69;100.00;99977.53;1726439;81;21848;-59
2022/08/11 05:10:39;;;;;;;5.62;4.47;;;;;;;20.71;100.00;99974.74;1697761;82;21435;-59
2022/08/11 05:36:03;;;;;;;4.78;4.37;;;;;;;20.83;100.00;100025.01;1685686;82;21515;-59
2022/08/11 05:57:59;;;;;;;8.80;5.12;;;;;;;20.92;100.00;100002.41;1729826;80;20970;-58
2022/08/11 06:00:26;;;;;;;5.20;4.80;;;;;;;20.91;100.00;100000.72;1745582;80;21100;-57
2022/08/11 06:02:57;;;;;;;6.58;5.75;;;;;;;20.93;100.00;100001.44;1737100;80;22065;-57
2022/08/11 06:05:37;;;;;;;5.42;5.03;;;;;;;20.99;100.00;100005.44;1737540;80;21041;-57
2022/08/11 06:08:04;;;;;;;5.72;5.15;;;;;;;21.04;100.00;100021.97;1731526;81;21566;-57
2022/08/11 06:10:38;;;;;;;5.78;5.30;;;;;;;21.05;100.00;100026.33;1734914;80;20999;-57
2022/08/11 06:13:07;;;;;;;5.50;5.00;;;;;;;21.13;100.00;100041.74;1736077;80;21547;-57
2022/08/11 06:15:46;;;;;;;5.70;4.65;;;;;;;21.16;100.00;100051.70;1723766;80;21582;-57
2022/08/11 06:18:13;;;;;;;6.85;5.45;;;;;;;21.14;100.00;100054.99;1692581;83;21451;-58
2022/08/11 06:20:55;;;;;;;7.45;5.55;;;;;;;21.12;100.00;100058.28;1726257;80;28614;-57
2022/08/11 06:23:23;;;;;;;6.47;5.05;;;;;;;21.09;100.00;100054.50;1741292;80;21962;-57
2022/08/11 06:25:51;;;;;;;6.58;5.50;;;;;;;21.17;100.00;100067.25;1737050;80;21557;-57
2022/08/11 06:28:19;;;;;;;5.55;5.00;;;;;;;21.17;100.00;100067.25;1733766;80;21732;-58
2022/08/11 06:30:46;;;;;;;6.12;5.55;;;;;;;21.26;100.00;100066.52;1741566;80;21476;-57
2022/08/11 06:33:18;;;;;;;5.58;5.08;;;;;;;21.35;100.00;100064.93;1729317;80;21586;-57
2022/08/11 06:36:06;;;;;;;5.28;4.78;;;;;;;21.42;100.00;100061.25;1734535;81;21000;-57
2022/08/11 06:38:42;;;;;;;5.90;5.08;;;;;;;21.47;100.00;100058.59;1741788;80;21543;-56
2022/08/11 06:41:31;;;;;;;5.90;5.47;;;;;;;21.52;100.00;100050.21;1734749;81;21828;-57
2022/08/11 06:44:11;;;;;;;5.50;5.08;;;;;;;21.53;100.00;100053.23;1704554;82;21581;-57
2022/08/11 06:46:45;;;;;;;5.20;4.80;;;;;;;21.55;100.00;100055.32;1701491;82;21625;-57
2022/08/11 06:52:06;;;;;;;6.62;5.50;;;;;;;21.56;100.00;100051.66;1714898;82;21502;-57
2022/08/11 06:54:40;;;;;;;12.55;5.67;;;;;;;21.51;100.00;100054.72;1683995;82;21877;-56
2022/08/11 07:02:36;;;;;;;7.62;5.00;;;;;;;21.53;100.00;100074.63;1684518;83;21054;-57
2022/08/11 07:05:16;;;;;;;5.90;5.42;;;;;;;21.53;100.00;100070.63;1678576;83;21519;-57
2022/08/11 07:17:48;;;;;;;6.25;5.65;;;;;;;21.61;100.00;100033.41;1701050;82;21517;-56
2022/08/11 07:28:55;;;;;;;6.65;5.30;;;;;;;21.74;100.00;100004.64;1688967;83;21104;-57
2022/08/11 07:31:44;;;;;;;6.10;5.53;;;;;;;21.92;100.00;99986.66;1709426;82;21046;-58
2022/08/11 07:34:24;;;;;;;6.67;5.80;;;;;;;21.92;100.00;99986.66;1716297;82;21657;-62
2022/08/11 07:36:54;;;;;;;6.97;5.62;;;;;;;22.09;100.00;99998.11;1711337;82;21763;-57
2022/08/11 07:39:27;;;;;;;8.10;5.35;;;;;;;22.24;100.00;99993.27;1678544;84;21658;-57
2022/08/11 07:41:56;;;;;;;7.03;5.33;;;;;;;22.37;100.00;99990.42;1704438;82;21412;-58
2022/08/11 07:44:27;;;;;;;9.70;5.78;;;;;;;22.45;100.00;99981.72;1693270;82;21514;-57
2022/08/11 07:52:31;;;;;;;6.20;5.60;;;;;;;22.80;100.00;99968.40;1713949;80;21677;-57
2022/08/11 07:55:09;;;;;;;6.80;5.22;;;;;;;22.92;100.00;99968.63;1723636;80;21602;-57
2022/08/11 08:19:43;;;;;;;8.45;4.70;;;;;;;23.05;97.68;99984.00;1746903;80;21560;-57
2022/08/11 08:22:15;;;;;;;4.67;4.37;;;;;;;23.05;97.68;99984.00;1730748;80;21615;-58
2022/08/11 08:24:42;;;;;;;4.83;4.53;;;;;;;23.02;97.68;99988.75;1686602;84;21522;-57
2022/08/11 08:27:11;;;;;;;4.62;4.22;;;;;;;22.99;97.16;99976.98;1730825;80;21507;-57
2022/08/11 08:32:23;;;;;;;4.65;4.20;;;;;;;23.01;97.71;99973.67;1694586;84;21601;-58
2022/08/11 08:34:50;;;;;;;4.70;4.40;;;;;;;22.98;97.41;99972.59;1688838;84;21437;-57
2022/08/11 08:37:22;;;;;;;4.85;3.92;;;;;;;22.98;96.82;99975.27;1696692;82;21518;-57
2022/08/11 08:39:49;;;;;;;4.33;4.03;;;;;;;22.94;96.55;99963.97;1737073;80;21568;-57
2022/08/11 08:42:22;;;;;;;4.28;3.77;;;;;;;22.92;96.68;99978.88;1733843;80;21861;-57
2022/08/11 08:45:09;;;;;;;6.47;3.67;;;;;;;22.95;97.04;99985.80;1723826;80;21140;-57
2022/08/11 08:47:41;;;;;;;3.98;3.47;;;;;;;22.95;97.04;99985.80;1721738;80;21558;-58
2022/08/11 08:50:14;;;;;;;4.20;3.90;;;;;;;22.94;97.00;99988.97;1695107;82;21553;-58
2022/08/11 08:52:46;;;;;;;4.30;3.90;;;;;;;23.00;96.89;99995.63;1689581;84;20991;-58
2022/08/11 08:55:17;;;;;;;3.47;3.27;;;;;;;23.09;97.01;100004.69;1694375;82;21895;-59
2022/08/11 08:57:44;;;;;;;6.33;4.40;;;;;;;23.15;96.96;100003.29;1682352;83;21538;-63
2022/08/11 09:00:13;;;;;;;3.83;3.40;;;;;;;23.22;95.85;100004.44;1691950;83;21497;-58
2022/08/11 09:02:40;;;;;;;4.10;3.80;;;;;;;23.29;96.08;100001.06;1660331;82;22198;-58
2022/08/11 09:05:08;;;;;;;4.00;3.60;;;;;;;23.44;95.55;99996.14;1670869;84;21544;-58
2022/08/11 09:07:35;;;;;;;7.83;3.87;;;;;;;23.44;95.55;99996.14;1682795;82;21505;-58
2022/08/11 09:10:03;;;;;;;3.87;3.58;;;;;;;23.48;94.57;99994.02;1682988;82;21539;-58
2022/08/11 09:12:31;;;;;;;6.22;3.37;;;;;;;23.58;94.56;100002.91;1725682;80;21588;-58
2022/08/11 09:15:04;;;;;;;3.77;3.47;;;;;;;23.58;94.56;100002.91;1735205;80;21412;-59
2022/08/11 09:17:49;;;;;;;4.12;3.75;;;;;;;23.61;93.39;100003.15;1741703;80;21591;-59
2022/08/11 09:20:23;;;;;;;4.10;3.70;;;;;;;23.61;93.39;100003.15;1727776;80;21519;-59
2022/08/11 09:28:21;;;;;;;3.70;3.40;;;;;;;23.54;92.38;100003.34;1736657;80;21542;-58
2022/08/11 09:30:53;;;;;;;4.37;3.20;;;;;;;23.53;92.50;99995.80;1722309;80;21566;-58
2022/08/11 09:33:22;;;;;;;4.55;3.47;;;;;;;23.53;93.14;100007.88;1737302;80;21810;-59
2022/08/11 09:35:50;;;;;;;5.17;3.42;;;;;;;23.53;93.14;100007.88;1729328;80;21487;-58
2022/08/11 09:41:07;;;;;;;3.98;3.55;;;;;;;23.40;93.28;100000.59;1727087;80;21049;-58
2022/08/11 09:46:28;;;;;;;5.35;3.40;;;;;;;23.32;94.62;99985.20;1734205;80;21787;-59
2022/08/11 09:48:58;;;;;;;3.58;3.27;;;;;;;23.29;94.78;99989.49;1733416;80;25569;-58
2022/08/11 09:51:29;;;;;;;3.45;3.17;;;;;;;23.24;94.77;99987.71;1732797;80;21593;-58
2022/08/11 09:59:21;;;;;;;4.50;3.67;;;;;;;22.82;98.19;99995.91;1768939;79;21554;-58
2022/08/11 10:02:00;;;;;;;5.87;3.42;;;;;;;22.78;98.03;99996.67;1732332;81;21809;-58
2022/08/11 10:04:36;;;;;;;3.70;3.40;;;;;;;22.75;98.44;100006.31;1773055;79;21612;-56
2022/08/11 10:07:09;;;;;;;4.30;3.22;;;;;;;22.75;98.44;100006.31;1763867;80;21467;-57
2022/08/11 10:09:39;;;;;;;3.37;3.00;;;;;;;22.74;99.79;100004.63;1766960;79;21499;-58
2022/08/11 10:12:27;;;;;;;5.20;3.50;;;;;;;22.73;100.00;100007.81;1735772;81;21416;-58
2022/08/11 10:18:41;;;;;;;6.62;4.10;;;;;;;22.95;100.00;99999.20;1721292;82;21441;-57
2022/08/11 10:20:14;;;;;;;4.30;3.80;;;;;;;22.95;100.00;99999.20;1717925;82;21426;-57
2022/08/11 10:28:11;;;;;;;4.03;3.72;;;;;;;23.74;98.15;99989.45;1715159;82;22222;-59
2022/08/11 10:36:08;;;;;;;4.78;4.37;;;;;;;24.56;93.14;99957.97;1711783;82;21542;-59
2022/08/11 10:38:34;;;;;;;5.95;3.98;;;;;;;24.85;92.45;99949.77;1709897;82;21607;-57
2022/08/11 10:43:46;;;;;;;7.62;4.20;;;;;;;25.18;92.99;99951.45;1716281;82;21482;-59
2022/08/11 10:48:58;;;;;;;7.35;3.95;;;;;;;25.78;88.34;99925.27;1722655;82;21683;-57
2022/08/11 10:59:42;;;;;;;4.87;3.95;;;;;;;26.57;81.05;99899.64;1723903;82;21081;-57
2022/08/11 11:02:13;;;;;;;3.90;3.60;;;;;;;26.82;81.12;99913.23;1696099;82;21599;-59
2022/08/11 11:05:03;;;;;;;5.10;4.10;;;;;;;26.97;79.75;99902.13;1693891;82;21525;-59
2022/08/11 11:07:55;;;;;;;6.05;4.10;;;;;;;27.18;79.41;99903.88;1705122;82;21656;-60
2022/08/11 11:10:22;;;;;;;6.95;3.98;;;;;;;27.36;77.19;99903.73;1717557;82;21504;-58
2022/08/11 11:18:34;;;;;;;6.85;4.50;;;;;;;27.52;75.18;99888.05;1722215;82;21137;-59
2022/08/11 11:21:13;;;;;;;4.85;4.17;;;;;;;27.43;74.56;99874.73;1720167;82;21834;-59
2022/08/11 11:24:01;;;;;;;4.62;4.22;;;;;;;27.37;74.15;99878.95;1719299;82;21434;-58
2022/08/11 11:26:55;;;;;;;6.08;4.40;;;;;;;27.35;74.11;99886.34;1718066;82;21490;-60
2022/08/11 11:29:54;;;;;;;4.83;4.53;;;;;;;27.34;73.97;99895.47;1720853;82;21514;-60
2022/08/11 11:32:36;;;;;;;4.80;4.50;;;;;;;27.25;72.90;99889.70;1707142;82;21781;-59
2022/08/11 11:35:30;;;;;;;4.80;4.35;;;;;;;27.24;73.80;99886.65;1714798;82;21558;-58
2022/08/11 11:37:56;;;;;;;5.05;4.55;;;;;;;27.30;74.14;99896.83;1712467;82;21007;-59
2022/08/11 11:40:23;;;;;;;4.93;4.53;;;;;;;27.41;74.06;99896.49;1696008;82;21495;-59
2022/08/11 11:42:51;;;;;;;5.10;4.70;;;;;;;27.49;73.57;99907.28;1716176;82;21520;-59
2022/08/11 11:45:20;;;;;;;6.37;4.55;;;;;;;27.51;73.54;99905.77;1713682;82;21563;-60
2022/08/11 11:47:53;;;;;;;4.50;4.10;;;;;;;27.52;73.75;99911.01;1722025;82;22100;-59
2022/08/11 11:50:37;;;;;;;4.60;4.30;;;;;;;27.51;72.81;99908.47;1714974;82;21576;-58
2022/08/11 11:53:07;;;;;;;5.17;4.67;;;;;;;27.49;72.64;99905.93;1715635;82;21128;-59
2022/08/11 11:55:34;;;;;;;4.45;4.17;;;;;;;27.44;72.84;99913.69;1681293;83;21637;-59
2022/08/11 12:03:33;;;;;;;8.28;5.42;;;;;;;27.30;74.26;99919.26;1695086;83;21605;-59
2022/08/11 12:06:02;;;;;;;5.00;4.60;;;;;;;27.31;74.28;99918.26;1696430;83;21503;-59
2022/08/11 12:08:28;;;;;;;;;;;;;;;27.39;73.82;99917.42;1695040;83;21034;-58
2022/08/11 12:13:49;;;;;;;5.45;4.30;;;;;;;27.51;73.78;99910.66;1688759;83;21579;-59
2022/08/11 12:16:19;;;;;;;8.58;4.37;;;;;;;27.56;73.92;99912.34;1671057;83;21467;-59
2022/08/11 12:18:50;;;;;;;9.08;4.78;;;;;;;27.63;73.22;99903.56;1694862;83;21546;-62
2022/08/11 12:21:16;;;;;;;6.12;4.70;;;;;;;27.64;73.18;99903.40;1670771;83;21505;-59
2022/08/11 12:29:18;;;;;;;7.08;4.42;;;;;;;27.58;74.29;99913.02;1726323;80;20948;-58
2022/08/11 12:31:45;;;;;;;5.55;4.30;;;;;;;27.50;74.94;99914.39;1750825;80;21444;-59
2022/08/11 12:34:14;;;;;;;5.92;4.87;;;;;;;27.52;75.31;99919.59;1752810;80;21617;-59
2022/08/11 12:36:45;;;;;;;4.85;4.45;;;;;;;27.45;74.73;99918.60;1743656;81;21570;-58
2022/08/11 12:39:12;;;;;;;6.72;4.60;;;;;;;27.47;74.66;99916.58;1748173;81;21908;-58
2022/08/11 12:47:17;;;;;;;4.97;4.58;;;;;;;27.51;75.46;99899.86;1697153;83;21554;-59
2022/08/11 12:52:44;;;;;;;8.00;4.87;;;;;;;27.51;75.76;99909.30;1666647;84;21911;-59
2022/08/11 12:58:14;;;;;;;5.60;4.72;;;;;;;27.47;75.55;99914.71;1753721;80;21535;-58
2022/08/11 13:06:04;;;;;;;5.33;4.87;;;;;;;27.31;75.60;99920.09;1727842;80;21773;-62
2022/08/11 13:08:34;;;;;;;5.05;4.53;;;;;;;27.27;76.69;99934.94;1758151;80;26844;-58
2022/08/11 13:13:48;;;;;;;6.83;5.00;;;;;;;27.18;76.64;99936.73;1764863;80;21501;-57
2022/08/11 13:16:16;;;;;;;5.80;5.10;;;;;;;27.12;77.18;99930.66;1761041;80;21416;-58
2022/08/11 13:18:43;;;;;;;6.60;5.30;;;;;;;27.05;77.93;99929.63;1754014;80;25775;-58
2022/08/11 13:21:13;;;;;;;7.22;4.72;;;;;;;27.03;78.33;99931.17;1755654;80;21029;-58
2022/08/11 13:23:39;;;;;;;7.92;5.42;;;;;;;26.98;78.49;99929.47;1754662;80;21562;-59
2022/08/11 13:26:07;;;;;;;8.10;4.80;;;;;;;26.97;78.26;99930.45;1767560;80;21538;-57
2022/08/11 13:28:36;;;;;;;5.90;4.87;;;;;;;27.06;78.37;99929.98;1763653;80;21062;-58
2022/08/11 13:31:13;;;;;;;5.58;5.05;;;;;;;27.04;78.76;99927.96;1754560;80;21777;-58
2022/08/11 13:33:44;;;;;;;5.60;5.20;;;;;;;26.98;79.23;99928.95;1762376;79;21061;-58
2022/08/11 13:36:10;;;;;;;5.45;4.95;;;;;;;26.99;78.91;99930.66;1761582;80;21567;-58
2022/08/11 13:38:40;;;;;;;5.58;5.17;;;;;;;27.08;79.29;99929.31;1759185;80;21578;-58
2022/08/11 13:41:36;;;;;;;5.30;4.87;;;;;;;27.25;79.49;99934.23;1761534;80;21479;-57
2022/08/11 13:43:36;;;;;;;5.78;5.37;;;;;;;27.36;79.06;99928.54;1734399;80;21783;-58
2022/08/11 13:46:19;;;;;;;6.00;5.55;;;;;;;27.41;78.92;99929.38;1765704;80;21514;-58
2022/08/11 13:48:47;;;;;;;5.83;5.33;;;;;;;27.49;78.35;99924.00;1767196;80;21624;-59
2022/08/11 13:51:29;;;;;;;9.65;5.35;;;;;;;27.61;77.81;99922.63;1763900;80;21600;-59
2022/08/11 13:53:59;;;;;;;7.35;5.28;;;;;;;27.69;77.36;99923.13;1765358;80;21522;-59
2022/08/11 13:56:26;;;;;;;6.22;5.03;;;;;;;27.76;77.53;99917.39;1753878;80;21985;-59
2022/08/11 13:58:54;;;;;;;5.70;5.22;;;;;;;27.77;77.34;99919.92;1754703;80;21518;-58
2022/08/11 14:01:22;;;;;;;;;;;;;;;27.80;77.66;99917.37;1758747;80;21452;-58
2022/08/11 14:03:48;;;;;;;5.87;5.30;;;;;;;27.79;77.46;99920.28;1749955;80;20457;-62
2022/08/11 14:06:17;;;;;;;6.05;5.53;;;;;;;27.70;78.04;99924.83;1759190;80;20931;-59
2022/08/11 14:08:44;;;;;;;6.53;4.87;;;;;;;27.71;78.08;99933.28;1763524;79;21899;-58
2022/08/11 14:13:57;;;;;;;6.10;5.28;;;;;;;27.76;78.56;99924.14;1768119;80;20171;-58
2022/08/11 14:16:37;;;;;;;5.75;5.17;;;;;;;27.86;78.53;99922.13;1760048;80;21490;-58
2022/08/11 14:19:10;;;;;;;9.83;5.03;;;;;;;27.95;78.53;99917.08;1749521;80;21529;-58
2022/08/11 14:24:22;;;;;;;5.95;5.25;;;;;;;28.05;77.39;99917.37;1761295;80;21521;-59
2022/08/11 14:26:50;;;;;;;7.90;5.47;;;;;;;28.12;76.81;99921.94;1760100;80;21170;-58
2022/08/11 14:29:18;;;;;;;;;;;;;;;28.09;77.77;99923.63;1764527;80;21602;-59
2022/08/11 14:31:48;;;;;;;5.85;5.40;;;;;;;28.03;78.50;99928.86;1758926;80;20434;-58
2022/08/11 14:34:17;;;;;;;6.28;5.67;;;;;;;27.97;78.47;99923.63;1763372;80;21780;-59
2022/08/11 14:36:44;;;;;;;8.48;6.30;;;;;;;27.98;79.09;99924.50;1736970;80;21426;-59
2022/08/11 14:39:12;;;;;;;;;;;;;;;27.93;78.39;99916.41;1758132;80;21539;-59
2022/08/11 14:47:14;;;;;;;9.10;6.67;;;;;;;27.99;76.96;99908.61;1759513;80;21833;-61
2022/08/11 14:49:42;;;;;;;8.67;7.80;;;;;;;28.10;76.86;99898.27;1757749;80;21476;-59
2022/08/11 14:52:15;;;;;;;8.30;7.60;;;;;;;28.26;75.05;99894.69;1757075;80;21518;-60
2022/08/11 14:57:30;;;;;;;10.70;7.55;;;;;;;28.61;74.18;99879.00;1755444;80;21054;-58
2022/08/11 14:59:59;;;;;;;8.05;7.37;;;;;;;28.71;73.10;99875.58;1763196;79;21797;-59
2022/08/11 15:05:13;;;;;;;8.03;7.25;;;;;;;28.77;72.79;99879.96;1762055;79;21553;-59
2022/08/11 15:07:39;;;;;;;8.43;7.60;;;;;;;28.80;73.22;99884.99;1696814;82;21547;-59
2022/08/11 15:10:08;;;;;;;8.43;7.53;;;;;;;28.81;73.40;99886.69;1767597;80;21460;-62
2022/08/11 15:12:36;;;;;;;12.55;8.00;;;;;;;28.85;73.17;99884.79;1747602;80;21463;-59
2022/08/11 15:17:52;;;;;;;9.68;7.45;;;;;;;28.85;70.76;99887.50;1755775;79;20417;-59
2022/08/11 15:26:13;;;;;;;11.97;7.72;;;;;;;28.96;71.30;99892.19;1755663;80;21797;-59
2022/08/11 15:45:48;;;;;;;8.35;7.10;;;;;;;31.00;60.21;99866.17;1712259;79;21605;-59
2022/08/11 15:48:35;;;;;;;7.62;6.92;;;;;;;30.86;61.10;99866.53;1759299;79;21422;-59
2022/08/11 15:51:23;;;;;;;8.08;7.45;;;;;;;30.70;61.39;99863.22;1753713;80;21515;-58
2022/08/11 15:53:56;;;;;;;8.95;7.60;;;;;;;30.38;62.79;99867.53;1752887;80;21880;-59
2022/08/11 15:56:28;;;;;;;10.05;7.20;;;;;;;30.05;63.79;99864.36;1753384;80;21581;-58
2022/08/11 16:04:29;;;;;;;;;;;;;;;29.16;67.24;99881.74;1760083;80;21545;-58
2022/08/11 16:07:09;;;;;;;8.40;7.30;;;;;;;28.79;68.91;99882.80;1759203;79;21851;-58
2022/08/11 16:09:46;;;;;;;8.03;6.83;;;;;;;28.54;70.09;99886.16;1752408;79;21515;-58
2022/08/11 16:12:16;;;;;;;7.92;7.28;;;;;;;28.36;71.79;99891.77;1748385;79;21503;-58
2022/08/11 16:17:44;;;;;;;9.65;7.25;;;;;;;28.12;73.35;99889.98;1750447;80;21625;-58
2022/08/11 16:20:12;;;;;;;11.75;7.70;;;;;;;27.94;74.62;99891.06;1698763;82;21814;-58
2022/08/11 16:22:42;;;;;;;10.20;7.28;;;;;;;27.83;75.59;99898.66;1736167;80;21471;-59
2022/08/11 16:25:10;;;;;;;8.40;7.60;;;;;;;27.71;76.37;99900.88;1733437;80;21467;-60
2022/08/11 16:27:43;;;;;;;8.88;7.35;;;;;;;27.63;76.69;99904.91;1743625;79;21436;-60
2022/08/11 16:30:10;;;;;;;7.92;7.15;;;;;;;27.52;77.15;99904.73;1748586;79;21542;-59
2022/08/11 16:32:40;;;;;;;8.85;6.97;;;;;;;27.36;78.17;99910.48;1758637;79;21881;-57
2022/08/11 16:40:46;;;;;;;10.93;7.20;;;;;;;27.30;79.06;99915.72;1752029;79;21601;-58
2022/08/11 16:48:48;;;;;;;;;;;;;;;27.11;80.00;99923.59;1751175;79;21542;-58
2022/08/11 16:51:14;;;;;;;9.17;7.70;;;;;;;26.98;81.30;99926.77;1731156;80;20439;-58
2022/08/11 16:53:44;;;;;;;7.95;7.10;;;;;;;26.78;81.36;99930.24;1751271;79;21456;-58
2022/08/11 16:56:15;;;;;;;7.72;6.80;;;;;;;26.68;82.59;99934.42;1762335;79;21451;-58
2022/08/11 17:01:28;;;;;;;8.78;7.47;;;;;;;26.58;83.49;99931.83;1755007;79;21586;-58
2022/08/11 17:18:02;;;;;;;8.58;7.47;;;;;;;26.15;86.63;99947.11;1757383;79;21014;-57
2022/08/11 17:20:29;;;;;;;9.05;8.33;;;;;;;26.05;87.22;99949.56;1737375;79;21049;-58
2022/08/11 17:25:42;;;;;;;9.10;8.00;;;;;;;25.89;88.60;99953.80;1758270;79;21856;-58
2022/08/11 17:28:10;;;;;;;7.62;6.87;;;;;;;25.89;88.74;99959.19;1764041;79;21562;-58